Alamosa, CO

12:39 AM MST on November 29, 2014 (GMT -0700)
Alamosa | Change Station
CLOSE
Current Station
Personal Weather Station
Location: Alamosa, CO
Elevation: 7569 ft
Nearby Weather Stations

Elev 7569 ft 37.49 °N, 105.90 °W | Updated 1 second ago

Clear
Clear
26.5 °F
Feels Like 26 °F
N
1.0
Wind Variable Wind from East
Gusts 1.0 mph

Today
High -- | Low -- °F
--% Chance of Precip.
Yesterday
High -- | Low -- °F
Precip. -- in
6:57 AM 4:46 PM
Waxing Crescent, 49% visible
Pressure 30.00 in
Visibility 10.0 miles
Clouds Clear
Windchill 26 °F
Dew Point 8 °F
Humidity 45%
Rainfall -999.00 in
Snow Depth Not available.
UV 0 out of 12
Pollen .10 out of 12
Air Quality Not available.
Flu Activity Not available.
METAR KALS 290652Z AUTO VRB04KT 10SM CLR M06/M15 A3005 RMK AO2 SLP159 T10611150 401561150

More Conditions Fewer Conditions

Pressure 30.00 in
Visibility 10.0 miles
Clouds Clear
Windchill 26 °F
Dew Point 8 °F
Humidity 45%
Rainfall -999.00 in
Snow Depth Not available.
UV 0 out of 12
Pollen .10 out of 12
Air Quality Not available.
Flu Activity Not available.
METAR KALS 290652Z AUTO VRB04KT 10SM CLR M06/M15 A3005 RMK AO2 SLP159 T10611150 401561150

More Conditions Fewer Conditions

10-Day Weather Forecast

Almanac

Astronomy

Nov. 29, 2014 Rise Set
Actual Time
Civil Twilight
Nautical Twilight
Astronomical Twilight
Moon
Length of Visible Light
Length of Day
Tomorrow will be .
, % of the Moon is Illuminated

Today's Extremes

State Highs State Lows

Community

WunderPhotos

Upload Photos

1,774,432 photos uploaded!

WunderBlogs® & News

Nearby

Air Quality

  Air Quality AQ Index Pollutant
Not available.

Snow Depth

Station Depth Elevation

Earthquake Activity

City Distance Mag. Time & Date
Minimum magnitude displayed is 2.5.

Coastal Water Temperatures

Place Temperature

Nearby Weather Stations